createdAt,value
2022-11-12T02:33:56.184Z,6.61
2022-11-12T02:39:06.413Z,4.69
2022-11-12T02:44:16.966Z,5.34
2022-11-12T02:49:27.245Z,5.49
2022-11-12T02:54:37.672Z,6.17
2022-11-12T02:59:48.086Z,5.42
2022-11-12T03:04:58.440Z,4.93
2022-11-12T03:10:09.075Z,3.47
2022-11-12T03:15:19.214Z,6.27
2022-11-12T03:20:30.073Z,6.24
2022-11-12T03:25:40.112Z,5.09
2022-11-12T03:30:50.644Z,5.40
2022-11-12T03:36:01.180Z,5.15
2022-11-12T03:41:11.738Z,5.87
2022-11-12T03:46:22.188Z,5.15
2022-11-12T03:51:32.151Z,5.98
2022-11-12T03:56:42.491Z,5.22
2022-11-12T04:01:52.788Z,6.13
2022-11-12T04:07:21.901Z,4.84
2022-11-12T04:12:51.188Z,5.00
2022-11-12T04:18:20.437Z,5.15
2022-11-12T04:23:30.775Z,4.20
2022-11-12T04:29:01.149Z,4.44
2022-11-12T04:34:29.298Z,5.83
2022-11-12T04:39:39.998Z,4.87
2022-11-12T04:45:16.763Z,5.05
2022-11-12T04:50:26.943Z,4.52
2022-11-12T04:55:37.275Z,3.84
2022-11-12T05:00:48.271Z,4.79
2022-11-12T05:06:29.605Z,5.65
2022-11-12T05:11:39.878Z,3.99
2022-11-12T05:16:51.417Z,4.05
2022-11-12T05:22:13.902Z,2.88
2022-11-12T05:27:32.286Z,4.83
2022-11-12T05:32:42.594Z,5.28
2022-11-12T05:37:53.097Z,4.26
2022-11-12T05:43:03.763Z,3.90
2022-11-12T05:48:14.189Z,3.92
2022-11-12T05:53:24.665Z,4.45
2022-11-12T05:58:36.460Z,5.00
2022-11-12T06:03:47.440Z,4.63
2022-11-12T06:08:57.481Z,3.00
2022-11-12T06:14:08.375Z,4.24
2022-11-12T06:19:18.551Z,3.17
2022-11-12T06:24:35.002Z,3.80
2022-11-12T06:29:45.872Z,3.31
2022-11-12T06:34:56.452Z,3.78
2022-11-12T06:40:07.682Z,2.64
2022-11-12T06:45:18.171Z,4.36
2022-11-12T06:50:28.376Z,2.08
2022-11-12T06:55:38.714Z,2.58
2022-11-12T07:00:49.323Z,2.00
2022-11-12T07:06:08.157Z,1.45
2022-11-12T07:11:19.973Z,2.53
2022-11-12T07:16:30.034Z,3.98
2022-11-12T07:21:40.464Z,2.11
2022-11-12T07:26:50.898Z,4.92
2022-11-12T07:32:01.468Z,6.26
2022-11-12T07:37:11.817Z,6.16
2022-11-12T07:42:22.192Z,7.96
2022-11-12T07:47:32.486Z,8.30
2022-11-12T07:52:42.820Z,9.40
2022-11-12T07:57:53.869Z,7.52
2022-11-12T08:03:04.132Z,8.94
2022-11-12T08:08:14.518Z,9.51
2022-11-12T08:13:25.222Z,10.35
2022-11-12T08:18:35.627Z,10.73
2022-11-12T08:23:46.319Z,10.28
2022-11-12T08:28:56.499Z,10.88
2022-11-12T08:34:20.129Z,9.11
2022-11-12T08:39:32.879Z,10.63
2022-11-12T08:44:43.236Z,10.46
2022-11-12T08:49:53.605Z,10.81
2022-11-12T08:55:04.465Z,10.07
2022-11-12T09:00:15.616Z,9.33
2022-11-12T09:05:26.231Z,8.05
2022-11-12T09:10:42.013Z,8.85
2022-11-12T09:15:52.123Z,9.65
2022-11-12T09:21:05.152Z,9.64
2022-11-12T09:26:15.704Z,9.06
2022-11-12T09:31:26.130Z,8.58
2022-11-12T09:36:39.839Z,7.83
2022-11-12T09:41:50.512Z,9.34
2022-11-12T09:47:12.574Z,9.44
2022-11-12T09:52:27.219Z,9.18
2022-11-12T09:57:37.727Z,7.48
2022-11-12T10:02:57.206Z,8.60
2022-11-12T10:08:22.986Z,10.31
2022-11-12T10:14:04.057Z,10.40
2022-11-12T10:19:19.219Z,9.81
2022-11-12T10:24:35.165Z,9.31
2022-11-12T10:29:56.893Z,9.50
2022-11-12T10:35:07.665Z,9.40
2022-11-12T10:40:20.827Z,11.70
2022-11-12T10:45:32.347Z,11.02
2022-11-12T10:50:43.228Z,10.89
2022-11-12T10:56:00.105Z,11.25
2022-11-12T11:01:17.931Z,11.41
2022-11-12T11:06:28.655Z,11.61
2022-11-12T11:11:49.037Z,10.64
2022-11-12T11:17:08.509Z,10.49
2022-11-12T11:22:37.459Z,12.39
2022-11-12T11:28:08.946Z,11.58
2022-11-12T11:33:48.766Z,12.53
2022-11-12T11:39:22.755Z,11.26
2022-11-12T11:44:36.337Z,12.93
2022-11-12T11:49:56.059Z,13.32
2022-11-12T11:55:27.880Z,11.88
2022-11-12T12:00:47.606Z,12.01
2022-11-12T12:06:11.756Z,11.67
2022-11-12T12:11:45.445Z,12.97
2022-11-12T12:17:06.582Z,13.25
2022-11-12T12:22:24.166Z,11.71
2022-11-12T12:27:38.501Z,12.60
2022-11-12T12:32:59.821Z,12.12
2022-11-12T12:38:29.173Z,13.67
2022-11-12T12:43:53.850Z,12.50
2022-11-12T12:49:07.274Z,11.97
2022-11-12T12:54:52.944Z,14.04
2022-11-12T13:00:29.926Z,14.13
2022-11-12T13:05:42.895Z,11.22
2022-11-12T13:10:53.805Z,13.00
2022-11-12T13:16:04.659Z,13.21
2022-11-12T13:21:17.567Z,13.12
2022-11-12T13:26:44.048Z,13.38
2022-11-12T13:32:35.925Z,14.22
2022-11-12T13:37:57.488Z,14.38
2022-11-12T13:43:17.420Z,14.18
2022-11-12T13:48:34.168Z,14.29
2022-11-12T13:53:44.491Z,13.10
2022-11-12T13:58:55.542Z,12.63
2022-11-12T14:04:07.275Z,14.04
2022-11-12T14:09:23.828Z,14.21
2022-11-12T14:14:47.444Z,13.09
2022-11-12T14:20:08.324Z,14.11
2022-11-12T14:25:21.957Z,11.79
2022-11-12T14:30:32.201Z,12.83
2022-11-12T14:35:42.404Z,12.14
2022-11-12T14:40:55.691Z,13.26
2022-11-12T14:46:08.424Z,14.02
2022-11-12T14:51:19.499Z,13.82
2022-11-12T14:56:47.486Z,12.48
2022-11-12T15:02:31.397Z,13.85
2022-11-12T15:07:53.787Z,13.77
2022-11-12T15:13:11.796Z,13.49
2022-11-12T15:18:26.376Z,13.19
2022-11-12T15:23:36.800Z,12.26
2022-11-12T15:29:27.213Z,12.93
2022-11-12T15:34:40.052Z,12.28
2022-11-12T15:40:03.622Z,13.12
2022-11-12T15:45:21.745Z,10.96
2022-11-12T15:50:32.131Z,12.90
2022-11-12T15:55:44.053Z,11.10
2022-11-12T16:00:54.426Z,11.85
2022-11-12T16:06:09.040Z,10.62
2022-11-12T16:11:38.297Z,11.19
2022-11-12T16:16:48.559Z,11.42
2022-11-12T16:21:58.884Z,11.79
2022-11-12T16:27:16.006Z,11.32
2022-11-12T16:32:26.104Z,11.09
2022-11-12T16:37:38.478Z,9.84
2022-11-12T16:42:48.860Z,10.40
2022-11-12T16:47:59.390Z,10.16
2022-11-12T16:53:12.699Z,10.84
2022-11-12T16:58:23.210Z,9.71
2022-11-12T17:03:33.391Z,11.32
2022-11-12T17:08:46.335Z,11.13
2022-11-12T17:13:56.619Z,10.85
2022-11-12T17:19:07.623Z,9.55
2022-11-12T17:24:18.425Z,10.43
2022-11-12T17:29:28.745Z,11.07
2022-11-12T17:34:39.095Z,10.67
2022-11-12T17:39:49.460Z,9.98
2022-11-12T17:44:59.756Z,10.67
2022-11-12T17:50:10.132Z,10.71
2022-11-12T17:55:20.633Z,10.79
2022-11-12T18:00:31.080Z,10.74
2022-11-12T18:05:41.597Z,10.56
2022-11-12T18:10:52.943Z,9.56
2022-11-12T18:16:14.859Z,11.09
2022-11-12T18:21:26.811Z,9.77
2022-11-12T18:26:37.384Z,9.38
2022-11-12T18:31:48.199Z,10.26
2022-11-12T18:36:58.305Z,9.50
2022-11-12T18:42:08.643Z,10.53
2022-11-12T18:47:18.936Z,10.57
2022-11-12T18:52:29.321Z,8.94
2022-11-12T18:57:39.817Z,9.07
2022-11-12T19:02:50.402Z,9.86
2022-11-12T19:08:00.913Z,10.32
2022-11-12T19:13:13.502Z,9.97
2022-11-12T19:18:24.116Z,10.31
2022-11-12T19:23:34.906Z,10.38
2022-11-12T19:28:45.883Z,9.62
2022-11-12T19:33:56.372Z,9.55
2022-11-12T19:39:06.694Z,10.00
2022-11-12T19:44:16.977Z,8.76
2022-11-12T19:49:27.185Z,8.09
2022-11-12T19:54:40.055Z,9.92
2022-11-12T19:59:50.359Z,9.46
2022-11-12T20:05:00.743Z,9.53
2022-11-12T20:10:12.845Z,8.55
2022-11-12T20:15:23.175Z,9.12
2022-11-12T20:20:33.644Z,9.67
2022-11-12T20:25:44.253Z,7.98
2022-11-12T20:31:03.303Z,7.12
2022-11-12T20:36:16.035Z,8.66
2022-11-12T20:41:26.898Z,8.30
2022-11-12T20:46:37.103Z,9.32
2022-11-12T20:51:47.414Z,9.19
2022-11-12T20:56:59.712Z,9.22
2022-11-12T21:02:10.316Z,8.43
2022-11-12T21:07:20.999Z,7.20
2022-11-12T21:12:31.712Z,7.90
2022-11-12T21:17:42.159Z,6.46
2022-11-12T21:22:52.620Z,8.18
2022-11-12T21:28:03.434Z,8.65
2022-11-12T21:33:13.788Z,8.07
2022-11-12T21:38:24.532Z,7.39
2022-11-12T21:43:39.750Z,6.53
2022-11-12T21:48:54.720Z,7.68
2022-11-12T21:54:07.333Z,7.91
2022-11-12T21:59:17.701Z,5.80
2022-11-12T22:04:28.145Z,6.99
2022-11-12T22:09:38.564Z,6.53
2022-11-12T22:14:48.822Z,7.05
2022-11-12T22:19:59.446Z,6.72
2022-11-12T22:25:09.927Z,7.96
2022-11-12T22:30:20.423Z,7.02
2022-11-12T22:35:30.832Z,6.90
2022-11-12T22:40:41.186Z,6.67
2022-11-12T22:45:51.408Z,7.75
2022-11-12T22:51:03.596Z,7.92
2022-11-12T22:56:16.956Z,7.94
2022-11-12T23:01:29.990Z,7.91
2022-11-12T23:06:40.625Z,7.85
2022-11-12T23:11:50.887Z,7.83
2022-11-12T23:17:02.348Z,7.25
2022-11-12T23:22:12.732Z,7.27
2022-11-12T23:27:23.430Z,6.74
2022-11-12T23:32:34.022Z,5.80
2022-11-12T23:37:44.640Z,6.96
2022-11-12T23:42:55.111Z,6.69
2022-11-12T23:48:05.793Z,5.07
2022-11-12T23:53:16.761Z,7.28
2022-11-12T23:58:28.039Z,6.42
